createdAt,value
2023-02-22T00:45:30.927Z,8.23
2023-02-22T00:48:27.677Z,2.35
2023-02-22T00:54:57.174Z,1.38
2023-02-22T01:01:40.116Z,9.82
2023-02-22T01:04:52.237Z,2.63
2023-02-22T01:07:47.112Z,8.43
2023-02-22T01:15:31.103Z,2.00
2023-02-22T01:18:48.764Z,2.25
2023-02-22T01:26:52.878Z,4.03
2023-02-22T01:29:46.430Z,2.63
2023-02-22T01:32:42.219Z,1.58
2023-02-22T01:35:33.060Z,9.23
2023-02-22T01:43:21.326Z,1.23
2023-02-22T01:46:31.686Z,3.50
2023-02-22T01:49:30.250Z,1.45
2023-02-22T01:55:47.059Z,3.92
2023-02-22T01:58:49.351Z,7.88
2023-02-22T02:02:28.929Z,0.65
2023-02-22T02:05:18.307Z,1.55
2023-02-22T02:08:22.681Z,1.13
2023-02-22T02:11:17.203Z,1.35
2023-02-22T02:14:14.073Z,0.80
2023-02-22T02:17:17.798Z,2.35
2023-02-22T02:20:41.185Z,11.20
2023-02-22T02:23:53.747Z,1.95
2023-02-22T02:27:08.061Z,2.65
2023-02-22T02:34:33.119Z,1.75
2023-02-22T02:41:06.612Z,3.08
2023-02-22T02:47:12.423Z,1.10
2023-02-22T02:50:28.159Z,9.48
2023-02-22T02:53:41.129Z,1.98
2023-02-22T03:03:52.496Z,1.70
2023-02-22T03:07:32.634Z,1.60
2023-02-22T03:10:50.738Z,0.77
2023-02-22T03:18:48.329Z,2.22
2023-02-22T03:22:10.059Z,0.73
2023-02-22T03:25:16.617Z,2.05
2023-02-22T03:28:12.108Z,1.58
2023-02-22T03:31:22.444Z,0.98
2023-02-22T03:34:48.153Z,0.85
2023-02-22T03:38:20.009Z,2.28
2023-02-22T03:41:11.605Z,4.78
2023-02-22T03:44:09.362Z,1.33
2023-02-22T03:47:02.429Z,4.95
2023-02-22T03:50:28.651Z,1.45
2023-02-22T03:53:41.376Z,2.15
2023-02-22T03:57:10.220Z,9.57
2023-02-22T04:00:20.241Z,4.38
2023-02-22T04:08:00.456Z,1.67
2023-02-22T04:10:47.240Z,3.10
2023-02-22T04:13:35.319Z,1.17
2023-02-22T04:16:22.180Z,1.95
2023-02-22T04:19:09.962Z,1.80
2023-02-22T04:21:57.517Z,1.08
2023-02-22T04:24:45.618Z,1.25
2023-02-22T04:27:31.757Z,1.15
2023-02-22T04:30:36.373Z,0.93
2023-02-22T04:33:25.425Z,3.65
2023-02-22T04:36:13.676Z,1.13
2023-02-22T04:39:00.571Z,2.17
2023-02-22T04:41:48.436Z,7.93
2023-02-22T04:44:34.636Z,2.72
2023-02-22T04:47:20.952Z,2.15
2023-02-22T04:50:07.782Z,3.00
2023-02-22T04:52:54.373Z,1.85
2023-02-22T04:55:40.727Z,2.67
2023-02-22T04:58:26.817Z,0.80
2023-02-22T05:01:14.408Z,3.85
2023-02-22T05:04:02.339Z,7.85
2023-02-22T05:06:48.789Z,2.33
2023-02-22T05:09:34.703Z,1.95
2023-02-22T05:12:21.564Z,1.80
2023-02-22T05:15:08.399Z,1.58
2023-02-22T05:17:54.304Z,9.38
2023-02-22T05:20:40.903Z,4.50
2023-02-22T05:23:27.263Z,4.78
2023-02-22T05:26:13.133Z,8.35
2023-02-22T05:28:59.420Z,3.63
2023-02-22T05:31:45.925Z,1.05
2023-02-22T05:34:32.543Z,0.98
2023-02-22T05:37:18.715Z,2.10
2023-02-22T05:40:08.527Z,2.67
2023-02-22T05:42:55.264Z,1.58
2023-02-22T05:45:42.035Z,2.00
2023-02-22T05:48:28.131Z,2.75
2023-02-22T05:51:14.542Z,2.78
2023-02-22T05:54:01.024Z,1.60
2023-02-22T05:56:48.117Z,9.88
2023-02-22T05:59:34.046Z,2.15
2023-02-22T06:02:20.379Z,4.55
2023-02-22T06:05:06.929Z,3.25
2023-02-22T06:07:53.059Z,2.92
2023-02-22T06:10:39.306Z,8.68
2023-02-22T06:13:25.510Z,2.15
2023-02-22T06:16:11.680Z,9.82
2023-02-22T06:18:58.275Z,10.43
2023-02-22T06:21:51.091Z,1.73
2023-02-22T06:24:38.665Z,9.95
2023-02-22T06:27:24.597Z,1.88
2023-02-22T06:30:13.330Z,3.67
2023-02-22T06:32:59.541Z,3.00
2023-02-22T06:35:45.806Z,8.55
2023-02-22T06:38:32.193Z,5.00
2023-02-22T06:56:17.885Z,30.08
2023-02-22T06:59:23.793Z,30.80
2023-02-22T07:02:12.830Z,65.53
2023-02-22T07:05:01.720Z,55.92
2023-02-22T07:07:48.572Z,13.00
2023-02-22T07:10:55.124Z,13.27
2023-02-22T07:13:41.405Z,34.75
2023-02-22T07:16:46.018Z,9.90
2023-02-22T07:19:31.914Z,35.20
2023-02-22T07:22:18.190Z,37.92
2023-02-22T07:25:04.465Z,34.58
2023-02-22T07:27:52.588Z,29.63
2023-02-22T07:30:38.606Z,30.02
2023-02-22T07:33:24.647Z,30.25
2023-02-22T07:36:10.816Z,39.50
2023-02-22T07:38:57.049Z,23.15
2023-02-22T07:41:43.160Z,18.85
2023-02-22T07:44:41.719Z,45.92
2023-02-22T07:47:27.617Z,27.50
2023-02-22T07:50:15.099Z,28.73
2023-02-22T07:53:02.957Z,29.50
2023-02-22T07:55:52.138Z,19.25
2023-02-22T07:58:38.037Z,17.25
2023-02-22T08:01:24.887Z,16.17
2023-02-22T08:04:14.221Z,11.70
2023-02-22T08:07:04.836Z,14.20
2023-02-22T08:09:51.738Z,14.35
2023-02-22T08:12:42.387Z,12.60
2023-02-22T08:15:34.657Z,16.00
2023-02-22T08:18:21.940Z,15.38
2023-02-22T08:21:11.095Z,12.60
2023-02-22T08:23:57.406Z,34.50
2023-02-22T08:26:46.963Z,17.25
2023-02-22T08:29:33.788Z,13.18
2023-02-22T08:32:20.250Z,17.73
2023-02-22T08:35:07.737Z,20.45
2023-02-22T08:37:55.711Z,32.15
2023-02-22T08:40:42.042Z,15.63
2023-02-22T08:43:28.703Z,20.88
2023-02-22T08:46:16.662Z,22.13
2023-02-22T08:49:03.364Z,23.02
2023-02-22T08:51:49.795Z,30.27
2023-02-22T08:54:55.765Z,18.50
2023-02-22T08:57:41.626Z,19.67
2023-02-22T09:00:29.692Z,12.23
2023-02-22T09:03:15.896Z,15.07
2023-02-22T09:06:01.961Z,14.25
2023-02-22T09:08:48.081Z,9.05
2023-02-22T09:11:34.204Z,8.57
2023-02-22T09:14:20.179Z,24.73
2023-02-22T09:17:06.571Z,20.58
2023-02-22T09:19:58.272Z,15.30
2023-02-22T09:22:53.542Z,18.17
2023-02-22T09:25:41.114Z,25.23
2023-02-22T09:28:29.140Z,15.20
2023-02-22T09:31:16.071Z,21.02
2023-02-22T09:34:04.282Z,22.65
2023-02-22T09:36:50.518Z,19.63
2023-02-22T09:39:37.689Z,20.48
2023-02-22T09:42:42.005Z,25.55
2023-02-22T09:45:32.574Z,12.40
2023-02-22T09:48:22.425Z,13.73
2023-02-22T09:51:15.627Z,12.48
2023-02-22T09:54:06.350Z,13.50
2023-02-22T09:56:55.728Z,12.65
2023-02-22T09:59:50.522Z,10.85
2023-02-22T10:02:38.687Z,9.60
2023-02-22T10:05:29.601Z,10.48
2023-02-22T10:11:29.698Z,9.35
2023-02-22T10:14:35.217Z,11.30
2023-02-22T10:17:35.961Z,12.50
2023-02-22T10:20:41.372Z,12.25
2023-02-22T10:23:46.841Z,10.32
2023-02-22T10:26:36.804Z,9.25
2023-02-22T10:29:41.657Z,9.05
2023-02-22T10:32:36.084Z,9.88
2023-02-22T10:35:28.223Z,10.32
2023-02-22T10:41:13.040Z,14.40
2023-02-22T10:44:01.945Z,9.20
2023-02-22T10:46:48.752Z,10.75
2023-02-22T10:49:42.072Z,11.38
2023-02-22T10:52:33.904Z,9.88
2023-02-22T10:55:22.088Z,12.82
2023-02-22T10:58:09.186Z,12.13
2023-02-22T11:01:00.165Z,15.95
2023-02-22T11:03:49.811Z,10.23
2023-02-22T11:06:36.385Z,15.27
2023-02-22T11:09:22.736Z,13.93
2023-02-22T11:12:16.670Z,32.42
2023-02-22T11:15:22.913Z,11.40
2023-02-22T11:18:21.617Z,10.85
2023-02-22T11:21:10.391Z,12.45
2023-02-22T11:24:08.590Z,12.07
2023-02-22T11:26:56.481Z,10.48
2023-02-22T11:29:43.823Z,10.82
2023-02-22T11:32:30.109Z,11.02
2023-02-22T11:35:19.894Z,11.93
2023-02-22T11:38:37.060Z,8.68
2023-02-22T11:41:42.355Z,35.20
2023-02-22T11:44:32.236Z,8.00
2023-02-22T11:47:18.278Z,9.13
2023-02-22T11:50:10.627Z,6.20
2023-02-22T11:53:07.652Z,6.50
2023-02-22T11:56:08.135Z,8.23
2023-02-22T11:58:54.316Z,4.47
2023-02-22T12:01:46.533Z,4.57
2023-02-22T12:04:36.470Z,3.50
2023-02-22T12:07:30.298Z,3.67
2023-02-22T12:10:29.691Z,2.55
2023-02-22T12:13:18.916Z,2.65
2023-02-22T12:16:05.097Z,2.90
2023-02-22T12:19:09.645Z,3.63
2023-02-22T12:22:02.708Z,3.35
2023-02-22T12:25:08.550Z,2.50
2023-02-22T12:27:55.061Z,3.25
2023-02-22T12:30:43.192Z,3.22
2023-02-22T12:33:31.608Z,4.05
2023-02-22T12:36:20.871Z,2.80
2023-02-22T12:39:21.561Z,2.88
2023-02-22T12:42:14.144Z,7.75
2023-02-22T12:45:06.630Z,5.30
2023-02-22T12:48:02.398Z,3.17
2023-02-22T12:50:52.892Z,3.25
2023-02-22T12:53:40.877Z,2.55
2023-02-22T12:56:36.499Z,3.78
2023-02-22T12:59:33.942Z,3.58
2023-02-22T13:02:43.664Z,3.65
2023-02-22T13:05:34.799Z,3.60
2023-02-22T13:08:37.977Z,4.63
2023-02-22T13:11:23.569Z,5.00
2023-02-22T13:14:30.187Z,3.92
2023-02-22T13:17:28.755Z,3.83
2023-02-22T13:20:23.442Z,2.67
2023-02-22T13:23:15.065Z,2.95
2023-02-22T13:26:08.895Z,3.63
2023-02-22T13:28:55.014Z,3.42
2023-02-22T13:31:50.215Z,4.13
2023-02-22T13:34:45.425Z,3.13
2023-02-22T13:37:40.610Z,2.95
2023-02-22T13:40:26.848Z,3.40
2023-02-22T13:43:31.708Z,2.85
2023-02-22T13:46:43.322Z,2.58
2023-02-22T13:49:48.110Z,3.17
2023-02-22T13:52:34.657Z,3.90
2023-02-22T13:55:28.201Z,5.00
2023-02-22T13:58:14.464Z,4.32
2023-02-22T14:01:00.943Z,3.20
2023-02-22T14:03:48.410Z,2.55
2023-02-22T14:06:38.546Z,2.65
2023-02-22T14:09:45.638Z,3.00
2023-02-22T14:12:31.435Z,3.40
2023-02-22T14:15:29.554Z,3.10
2023-02-22T14:18:17.163Z,4.82
2023-02-22T14:21:10.093Z,4.13
2023-02-22T14:23:57.061Z,4.63
2023-02-22T14:26:54.245Z,5.28
2023-02-22T14:29:57.731Z,5.07
2023-02-22T14:32:44.216Z,3.08
2023-02-22T14:35:49.158Z,3.47
2023-02-22T14:38:38.409Z,3.10
2023-02-22T14:41:27.665Z,2.72
2023-02-22T14:44:14.351Z,4.00
2023-02-22T14:47:05.134Z,3.20
2023-02-22T14:49:52.755Z,4.20
2023-02-22T14:52:39.809Z,4.53
2023-02-22T14:55:26.628Z,9.98
2023-02-22T14:58:35.850Z,3.95
2023-02-22T15:01:27.229Z,6.50
2023-02-22T15:04:20.974Z,13.40
2023-02-22T15:07:20.679Z,11.07
2023-02-22T15:10:20.705Z,8.48
2023-02-22T15:13:14.136Z,6.05
2023-02-22T15:16:02.420Z,7.18
2023-02-22T15:18:55.583Z,7.47
2023-02-22T15:21:46.268Z,5.75
2023-02-22T15:24:37.031Z,7.10
2023-02-22T15:27:23.141Z,6.18
2023-02-22T15:30:16.973Z,6.25
2023-02-22T15:33:14.958Z,5.93
2023-02-22T15:36:01.175Z,6.45
2023-02-22T15:38:48.006Z,9.60
2023-02-22T15:41:34.037Z,10.90
2023-02-22T15:44:24.259Z,13.43
2023-02-22T15:47:18.074Z,11.10
2023-02-22T15:50:16.453Z,15.75
2023-02-22T15:53:04.604Z,10.27
2023-02-22T15:55:56.227Z,8.02
2023-02-22T15:58:45.888Z,10.23
2023-02-22T16:01:37.003Z,10.43
2023-02-22T16:04:24.561Z,7.15
2023-02-22T16:07:17.245Z,7.68
2023-02-22T16:10:09.353Z,9.45
2023-02-22T16:13:30.515Z,22.48
2023-02-22T16:16:20.903Z,13.55
2023-02-22T16:19:33.060Z,10.25
2023-02-22T16:22:35.620Z,5.85
2023-02-22T16:25:29.249Z,6.35
2023-02-22T16:28:31.855Z,12.20
2023-02-22T16:31:32.107Z,5.65
2023-02-22T16:34:18.482Z,18.85
2023-02-22T16:37:04.955Z,34.67
2023-02-22T16:39:54.530Z,11.50
2023-02-22T16:42:40.557Z,8.52
2023-02-22T16:45:26.766Z,7.22
2023-02-22T16:48:19.192Z,9.65
2023-02-22T16:53:53.313Z,11.75
2023-02-22T16:56:40.673Z,12.43
2023-02-22T16:59:26.769Z,17.05
2023-02-22T17:02:16.491Z,7.05
2023-02-22T17:05:03.047Z,5.53
2023-02-22T17:07:49.375Z,7.57
2023-02-22T17:10:35.498Z,7.03
2023-02-22T17:13:26.629Z,22.73
2023-02-22T17:16:16.860Z,29.10
2023-02-22T17:19:05.377Z,44.20
2023-02-22T17:21:51.552Z,33.25
2023-02-22T17:24:39.352Z,19.92
2023-02-22T17:27:25.785Z,33.53
2023-02-22T17:30:13.964Z,83.13
2023-02-22T17:33:06.732Z,109.82
2023-02-22T17:35:53.482Z,94.60
2023-02-22T17:38:41.906Z,120.10
2023-02-22T17:41:29.316Z,76.97
2023-02-22T17:44:15.323Z,58.42
2023-02-22T17:47:01.603Z,31.60
2023-02-22T17:49:49.177Z,34.85
2023-02-22T17:52:34.936Z,37.55
2023-02-22T17:55:21.847Z,32.55
2023-02-22T17:58:14.682Z,33.38
2023-02-22T18:01:01.408Z,67.70
2023-02-22T18:03:47.697Z,96.70
2023-02-22T18:06:35.167Z,60.50
2023-02-22T18:09:21.190Z,37.70
2023-02-22T18:12:07.364Z,44.63
2023-02-22T18:14:53.558Z,38.78
2023-02-22T18:17:39.688Z,38.80
2023-02-22T18:20:38.384Z,48.53
2023-02-22T18:23:27.988Z,104.18
2023-02-22T18:26:15.609Z,59.45
2023-02-22T18:29:01.558Z,49.85
2023-02-22T18:31:47.750Z,44.65
2023-02-22T18:34:33.908Z,30.13
2023-02-22T18:37:20.667Z,25.73
2023-02-22T18:40:10.765Z,29.58
2023-02-22T18:42:57.344Z,24.73
2023-02-22T18:45:43.377Z,28.88
2023-02-22T18:48:29.857Z,33.15
2023-02-22T18:51:17.412Z,46.17
2023-02-22T18:54:03.851Z,43.28
2023-02-22T18:56:50.206Z,48.22
2023-02-22T18:59:38.068Z,40.92
2023-02-22T19:02:26.546Z,37.00
2023-02-22T19:05:13.316Z,40.80
2023-02-22T19:07:59.284Z,32.97
2023-02-22T19:10:45.840Z,40.58
2023-02-22T19:13:32.230Z,31.20
2023-02-22T19:16:19.998Z,28.55
2023-02-22T19:19:06.104Z,29.30
2023-02-22T19:21:52.323Z,29.25
2023-02-22T19:24:40.004Z,25.58
2023-02-22T19:27:28.093Z,23.45
2023-02-22T19:33:02.734Z,30.02
2023-02-22T19:35:49.069Z,8.63
2023-02-22T19:38:35.398Z,22.30
2023-02-22T19:41:22.994Z,25.63
2023-02-22T19:44:09.388Z,34.13
2023-02-22T19:46:55.908Z,4.53
2023-02-22T19:49:42.214Z,22.67
2023-02-22T19:52:29.141Z,18.17
2023-02-22T19:55:36.358Z,2.97
2023-02-22T19:58:22.456Z,12.55
2023-02-22T20:01:12.472Z,18.75
2023-02-22T20:04:08.258Z,6.00
2023-02-22T20:06:55.004Z,8.55
2023-02-22T20:09:43.274Z,18.02
2023-02-22T20:12:29.379Z,22.02
2023-02-22T20:15:15.509Z,21.00
2023-02-22T20:18:01.724Z,18.15
2023-02-22T20:20:48.097Z,16.77
2023-02-22T20:23:34.244Z,14.95
2023-02-22T20:26:22.692Z,3.88
2023-02-22T20:29:09.381Z,15.18
2023-02-22T20:31:59.485Z,15.90
2023-02-22T20:34:46.195Z,18.00
2023-02-22T20:37:33.606Z,15.82
2023-02-22T20:40:20.140Z,13.43
2023-02-22T20:43:06.477Z,9.40
2023-02-22T20:45:52.640Z,12.77
2023-02-22T20:48:38.774Z,9.88
2023-02-22T20:51:25.593Z,9.23
2023-02-22T20:54:12.480Z,17.77
2023-02-22T20:56:58.658Z,12.15
2023-02-22T20:59:46.356Z,14.52
2023-02-22T21:02:32.326Z,15.70
2023-02-22T21:05:18.663Z,5.18
2023-02-22T21:08:05.296Z,16.88
2023-02-22T21:10:51.696Z,4.00
2023-02-22T21:13:37.896Z,17.13
2023-02-22T21:16:25.628Z,7.43
2023-02-22T21:19:12.216Z,15.90
2023-02-22T21:21:59.856Z,2.90
2023-02-22T21:24:47.656Z,13.18
2023-02-22T21:27:34.130Z,6.38
2023-02-22T21:30:20.288Z,1.98
2023-02-22T21:33:06.920Z,8.35
2023-02-22T21:35:53.213Z,5.45
2023-02-22T21:38:42.976Z,2.58
2023-02-22T21:41:30.563Z,6.45
2023-02-22T21:44:17.432Z,2.55
2023-02-22T21:47:03.824Z,10.52
2023-02-22T21:49:50.242Z,3.13
2023-02-22T21:52:37.553Z,16.90
2023-02-22T21:55:23.580Z,11.05
2023-02-22T21:58:12.289Z,4.05
2023-02-22T22:01:03.951Z,13.52
2023-02-22T22:03:51.077Z,6.68
2023-02-22T22:06:37.143Z,4.50
2023-02-22T22:09:23.876Z,14.07
2023-02-22T22:12:10.613Z,10.60
2023-02-22T22:14:56.809Z,3.75
2023-02-22T22:17:43.837Z,13.07
2023-02-22T22:20:29.696Z,11.10
2023-02-22T22:23:15.989Z,2.38
2023-02-22T22:26:02.508Z,1.92
2023-02-22T22:28:49.674Z,4.90
2023-02-22T22:31:36.330Z,14.90
2023-02-22T22:34:24.519Z,4.38
2023-02-22T22:37:10.487Z,2.53
2023-02-22T22:40:15.895Z,14.20
2023-02-22T22:43:08.887Z,2.50
2023-02-22T22:45:58.325Z,3.42
2023-02-22T22:48:47.200Z,15.23
2023-02-22T22:51:33.788Z,13.38
2023-02-22T22:54:19.603Z,4.28
2023-02-22T22:57:06.586Z,13.43
2023-02-22T22:59:54.096Z,2.88
2023-02-22T23:02:40.802Z,8.70
2023-02-22T23:05:46.469Z,3.20
2023-02-22T23:08:43.266Z,15.05
2023-02-22T23:14:53.042Z,2.80
2023-02-22T23:17:42.698Z,12.88
2023-02-22T23:20:29.246Z,3.42
2023-02-22T23:23:33.868Z,2.47
2023-02-22T23:26:20.533Z,1.15
2023-02-22T23:29:08.877Z,8.07
2023-02-22T23:31:55.965Z,3.55
2023-02-22T23:34:42.348Z,1.42
2023-02-22T23:37:35.551Z,2.92
2023-02-22T23:40:22.072Z,4.38
2023-02-22T23:43:11.822Z,9.52
2023-02-22T23:46:00.350Z,3.97
2023-02-22T23:48:52.025Z,1.65
2023-02-22T23:51:39.629Z,2.90
2023-02-22T23:54:26.150Z,9.65
2023-02-22T23:57:12.244Z,2.15
2023-02-22T23:59:58.733Z,2.20
